sensor_id;sensor_type;location;lat;lon;timestamp;pressure;altitude;pressure_sealevel;temperature;humidity
73338;BME280;61575;49.908;35.556;2023-02-01T00:00:10;98530.50;;;-0.70;85.58
73338;BME280;61575;49.908;35.556;2023-02-01T00:03:13;98528.81;;;-0.71;85.50
73338;BME280;61575;49.908;35.556;2023-02-01T00:06:16;98526.31;;;-0.73;85.87
73338;BME280;61575;49.908;35.556;2023-02-01T00:09:18;98528.22;;;-0.75;85.58
73338;BME280;61575;49.908;35.556;2023-02-01T00:12:20;98528.09;;;-0.73;85.86
73338;BME280;61575;49.908;35.556;2023-02-01T00:15:22;98524.63;;;-0.74;85.60
73338;BME280;61575;49.908;35.556;2023-02-01T00:18:24;98530.63;;;-0.72;85.68
73338;BME280;61575;49.908;35.556;2023-02-01T00:21:27;98523.53;;;-0.71;85.79
73338;BME280;61575;49.908;35.556;2023-02-01T00:24:29;98530.75;;;-0.73;85.69
73338;BME280;61575;49.908;35.556;2023-02-01T00:27:31;98527.50;;;-0.77;85.59
73338;BME280;61575;49.908;35.556;2023-02-01T00:30:33;98518.53;;;-0.74;85.66
73338;BME280;61575;49.908;35.556;2023-02-01T00:33:35;98525.59;;;-0.75;85.70
73338;BME280;61575;49.908;35.556;2023-02-01T00:36:37;98519.47;;;-0.75;85.58
73338;BME280;61575;49.908;35.556;2023-02-01T00:39:39;98520.19;;;-0.73;85.63
73338;BME280;61575;49.908;35.556;2023-02-01T00:42:41;98507.84;;;-0.73;85.51
73338;BME280;61575;49.908;35.556;2023-02-01T00:45:43;98513.25;;;-0.74;85.54
73338;BME280;61575;49.908;35.556;2023-02-01T00:48:47;98508.09;;;-0.76;85.59
73338;BME280;61575;49.908;35.556;2023-02-01T00:51:49;98512.16;;;-0.72;85.59
73338;BME280;61575;49.908;35.556;2023-02-01T00:54:50;98512.28;;;-0.73;85.50
73338;BME280;61575;49.908;35.556;2023-02-01T00:57:53;98512.28;;;-0.73;85.49
73338;BME280;61575;49.908;35.556;2023-02-01T01:04:04;98505.34;;;-0.74;85.34
73338;BME280;61575;49.908;35.556;2023-02-01T01:07:06;98509.78;;;-0.75;85.52
73338;BME280;61575;49.908;35.556;2023-02-01T01:10:08;98507.97;;;-0.74;85.42
73338;BME280;61575;49.908;35.556;2023-02-01T01:13:10;98506.19;;;-0.74;85.54
73338;BME280;61575;49.908;35.556;2023-02-01T01:16:12;98496.34;;;-0.72;85.58
73338;BME280;61575;49.908;35.556;2023-02-01T01:19:14;98493.72;;;-0.72;85.55
73338;BME280;61575;49.908;35.556;2023-02-01T01:22:16;98501.16;;;-0.77;85.77
73338;BME280;61575;49.908;35.556;2023-02-01T01:25:19;98493.13;;;-0.75;85.69
73338;BME280;61575;49.908;35.556;2023-02-01T01:28:21;98496.59;;;-0.75;85.67
73338;BME280;61575;49.908;35.556;2023-02-01T01:31:24;98493.25;;;-0.77;85.78
73338;BME280;61575;49.908;35.556;2023-02-01T01:34:26;98487.13;;;-0.78;85.68
73338;BME280;61575;49.908;35.556;2023-02-01T01:37:28;98482.81;;;-0.79;85.75
73338;BME280;61575;49.908;35.556;2023-02-01T01:40:30;98482.13;;;-0.81;85.74
73338;BME280;61575;49.908;35.556;2023-02-01T01:44:06;98474.19;;;-0.81;85.70
73338;BME280;61575;49.908;35.556;2023-02-01T01:47:09;98475.03;;;-0.80;85.76
73338;BME280;61575;49.908;35.556;2023-02-01T01:50:16;98476.84;;;-0.81;85.37
73338;BME280;61575;49.908;35.556;2023-02-01T01:53:27;98473.13;;;-0.78;85.54
73338;BME280;61575;49.908;35.556;2023-02-01T01:56:34;98474.06;;;-0.79;85.33
73338;BME280;61575;49.908;35.556;2023-02-01T01:59:38;98472.53;;;-0.82;85.52
73338;BME280;61575;49.908;35.556;2023-02-01T02:02:45;98468.94;;;-0.81;85.58
73338;BME280;61575;49.908;35.556;2023-02-01T02:05:50;98466.53;;;-0.84;85.55
73338;BME280;61575;49.908;35.556;2023-02-01T02:08:52;98466.53;;;-0.84;85.64
73338;BME280;61575;49.908;35.556;2023-02-01T02:11:54;98470.13;;;-0.85;85.63
73338;BME280;61575;49.908;35.556;2023-02-01T02:14:56;98464.88;;;-0.85;85.55
73338;BME280;61575;49.908;35.556;2023-02-01T02:18:07;98469.31;;;-0.85;85.59
73338;BME280;61575;49.908;35.556;2023-02-01T02:34:47;98474.44;;;-0.84;85.62
73338;BME280;61575;49.908;35.556;2023-02-01T02:44:35;98479.72;;;-0.84;85.38
73338;BME280;61575;49.908;35.556;2023-02-01T02:48:10;98477.94;;;-0.83;85.46
73338;BME280;61575;49.908;35.556;2023-02-01T02:51:56;98474.81;;;-0.88;85.36
73338;BME280;61575;49.908;35.556;2023-02-01T02:55:20;98480.69;;;-0.85;85.72
73338;BME280;61575;49.908;35.556;2023-02-01T02:58:23;98483.44;;;-0.86;85.71
73338;BME280;61575;49.908;35.556;2023-02-01T03:01:44;98474.31;;;-0.82;85.54
73338;BME280;61575;49.908;35.556;2023-02-01T03:05:04;98484.75;;;-0.81;85.57
73338;BME280;61575;49.908;35.556;2023-02-01T03:11:14;98474.91;;;-0.79;85.67
73338;BME280;61575;49.908;35.556;2023-02-01T03:14:18;98472.16;;;-0.77;85.29
73338;BME280;61575;49.908;35.556;2023-02-01T03:17:30;98462.44;;;-0.77;85.27
73338;BME280;61575;49.908;35.556;2023-02-01T03:20:37;98465.91;;;-0.76;85.46
73338;BME280;61575;49.908;35.556;2023-02-01T03:23:42;98464.97;;;-0.75;85.38
73338;BME280;61575;49.908;35.556;2023-02-01T03:26:54;98465.91;;;-0.76;85.25
73338;BME280;61575;49.908;35.556;2023-02-01T03:30:29;98460.78;;;-0.78;85.29
73338;BME280;61575;49.908;35.556;2023-02-01T03:33:32;98465.34;;;-0.80;85.30
73338;BME280;61575;49.908;35.556;2023-02-01T03:36:40;98456.59;;;-0.80;85.18
73338;BME280;61575;49.908;35.556;2023-02-01T03:39:50;98456.97;;;-0.85;85.35
73338;BME280;61575;49.908;35.556;2023-02-01T03:42:55;98464.88;;;-0.85;85.35
73338;BME280;61575;49.908;35.556;2023-02-01T03:46:01;98458.19;;;-0.89;85.52
73338;BME280;61575;49.908;35.556;2023-02-01T03:49:08;98460.94;;;-0.90;85.43
73338;BME280;61575;49.908;35.556;2023-02-01T03:52:26;98462.00;;;-0.93;85.60
73338;BME280;61575;49.908;35.556;2023-02-01T03:55:31;98463.94;;;-0.95;85.51
73338;BME280;61575;49.908;35.556;2023-02-01T03:58:33;98468.38;;;-0.95;85.60
73338;BME280;61575;49.908;35.556;2023-02-01T04:01:35;98470.75;;;-0.92;85.72
73338;BME280;61575;49.908;35.556;2023-02-01T04:04:37;98465.50;;;-0.92;85.50
73338;BME280;61575;49.908;35.556;2023-02-01T04:07:40;98475.56;;;-0.97;85.59
73338;BME280;61575;49.908;35.556;2023-02-01T04:10:42;98477.59;;;-1.01;85.69
73338;BME280;61575;49.908;35.556;2023-02-01T04:13:44;98474.84;;;-0.99;85.67
73338;BME280;61575;49.908;35.556;2023-02-01T04:16:46;98474.84;;;-0.99;86.10
73338;BME280;61575;49.908;35.556;2023-02-01T04:19:48;98479.28;;;-1.00;85.90
73338;BME280;61575;49.908;35.556;2023-02-01T04:22:50;98476.06;;;-1.03;85.79
73338;BME280;61575;49.908;35.556;2023-02-01T04:25:52;98482.88;;;-1.01;85.80
73338;BME280;61575;49.908;35.556;2023-02-01T04:28:54;98479.66;;;-1.04;85.62
73338;BME280;61575;49.908;35.556;2023-02-01T04:31:56;98480.47;;;-1.04;85.62
73338;BME280;61575;49.908;35.556;2023-02-01T04:34:58;98484.78;;;-1.03;85.85
73338;BME280;61575;49.908;35.556;2023-02-01T04:38:01;98489.09;;;-1.02;85.64
73338;BME280;61575;49.908;35.556;2023-02-01T04:41:02;98492.81;;;-1.04;85.75
73338;BME280;61575;49.908;35.556;2023-02-01T04:44:05;98491.88;;;-1.03;85.90
73338;BME280;61575;49.908;35.556;2023-02-01T04:47:07;98497.38;;;-1.06;85.74
73338;BME280;61575;49.908;35.556;2023-02-01T04:50:09;98499.88;;;-1.05;85.66
73338;BME280;61575;49.908;35.556;2023-02-01T04:53:12;98502.66;;;-1.06;85.60
73338;BME280;61575;49.908;35.556;2023-02-01T04:56:14;98510.31;;;-1.03;85.51
73338;BME280;61575;49.908;35.556;2023-02-01T04:59:16;98511.84;;;-1.01;85.56
73338;BME280;61575;49.908;35.556;2023-02-01T05:02:17;98516.16;;;-1.00;85.51
73338;BME280;61575;49.908;35.556;2023-02-01T05:05:19;98513.28;;;-0.97;85.30
73338;BME280;61575;49.908;35.556;2023-02-01T05:08:21;98514.00;;;-0.95;85.66
73338;BME280;61575;49.908;35.556;2023-02-01T05:11:24;98522.75;;;-0.94;85.19
73338;BME280;61575;49.908;35.556;2023-02-01T05:14:44;98520.94;;;-0.94;85.29
73338;BME280;61575;49.908;35.556;2023-02-01T05:17:46;98531.63;;;-0.95;85.20
73338;BME280;61575;49.908;35.556;2023-02-01T05:20:48;98520.25;;;-0.96;85.09
73338;BME280;61575;49.908;35.556;2023-02-01T05:23:50;98519.41;;;-0.96;85.18
73338;BME280;61575;49.908;35.556;2023-02-01T05:27:11;98528.16;;;-0.96;85.27
73338;BME280;61575;49.908;35.556;2023-02-01T05:30:13;98532.44;;;-0.95;85.26
73338;BME280;61575;49.908;35.556;2023-02-01T05:33:15;98530.91;;;-0.97;85.01
73338;BME280;61575;49.908;35.556;2023-02-01T05:36:17;98528.16;;;-0.96;85.14
73338;BME280;61575;49.908;35.556;2023-02-01T05:39:19;98533.16;;;-0.93;85.24
73338;BME280;61575;49.908;35.556;2023-02-01T05:42:21;98532.09;;;-0.90;85.16
73338;BME280;61575;49.908;35.556;2023-02-01T05:45:23;98532.69;;;-0.87;85.23
73338;BME280;61575;49.908;35.556;2023-02-01T05:48:25;98542.13;;;-0.84;85.08
73338;BME280;61575;49.908;35.556;2023-02-01T05:51:27;98544.19;;;-0.88;84.94
73338;BME280;61575;49.908;35.556;2023-02-01T05:54:29;98545.03;;;-0.87;84.89
73338;BME280;61575;49.908;35.556;2023-02-01T05:57:31;98542.13;;;-0.84;84.98
73338;BME280;61575;49.908;35.556;2023-02-01T06:00:33;98542.03;;;-0.83;84.74
73338;BME280;61575;49.908;35.556;2023-02-01T06:03:35;98543.81;;;-0.83;84.86
73338;BME280;61575;49.908;35.556;2023-02-01T06:06:38;98543.44;;;-0.79;84.90
73338;BME280;61575;49.908;35.556;2023-02-01T06:09:40;98551.81;;;-0.73;84.85
73338;BME280;61575;49.908;35.556;2023-02-01T06:12:42;98548.22;;;-0.72;84.79
73338;BME280;61575;49.908;35.556;2023-02-01T06:15:44;98546.56;;;-0.73;84.65
73338;BME280;61575;49.908;35.556;2023-02-01T06:18:46;98549.19;;;-0.73;84.77
73338;BME280;61575;49.908;35.556;2023-02-01T06:21:48;98544.16;;;-0.77;84.67
73338;BME280;61575;49.908;35.556;2023-02-01T06:24:50;98546.22;;;-0.80;84.79
73338;BME280;61575;49.908;35.556;2023-02-01T06:27:52;98549.19;;;-0.73;84.80
73338;BME280;61575;49.908;35.556;2023-02-01T06:30:54;98550.75;;;-0.71;84.84
73338;BME280;61575;49.908;35.556;2023-02-01T06:33:56;98542.34;;;-0.65;84.39
73338;BME280;61575;49.908;35.556;2023-02-01T08:15:01;98536.81;;;-0.19;88.78
73338;BME280;61575;49.908;35.556;2023-02-01T08:18:03;98532.38;;;0.03;87.86
73338;BME280;61575;49.908;35.556;2023-02-01T08:21:10;98536.59;;;0.26;86.88
73338;BME280;61575;49.908;35.556;2023-02-01T08:24:13;98538.63;;;0.43;85.81
73338;BME280;61575;49.908;35.556;2023-02-01T08:27:15;98535.22;;;0.52;85.02
73338;BME280;61575;49.908;35.556;2023-02-01T08:30:17;98541.38;;;0.63;84.28
73338;BME280;61575;49.908;35.556;2023-02-01T08:33:19;98542.00;;;0.76;83.99
73338;BME280;61575;49.908;35.556;2023-02-01T08:36:22;98539.94;;;0.79;83.63
73338;BME280;61575;49.908;35.556;2023-02-01T08:39:25;98538.44;;;0.87;83.23
73338;BME280;61575;49.908;35.556;2023-02-01T08:42:28;98537.06;;;0.92;82.73
73338;BME280;61575;49.908;35.556;2023-02-01T08:45:49;98533.19;;;0.96;82.88
73338;BME280;61575;49.908;35.556;2023-02-01T08:48:51;98520.13;;;1.04;82.27
73338;BME280;61575;49.908;35.556;2023-02-01T08:51:54;98515.44;;;1.17;81.94
73338;BME280;61575;49.908;35.556;2023-02-01T08:55:01;98517.00;;;1.30;81.44
73338;BME280;61575;49.908;35.556;2023-02-01T08:58:03;98509.22;;;1.28;80.95
73338;BME280;61575;49.908;35.556;2023-02-01T09:01:07;98507.00;;;1.33;80.68
73338;BME280;61575;49.908;35.556;2023-02-01T09:04:09;98509.34;;;1.36;80.58
73338;BME280;61575;49.908;35.556;2023-02-01T09:07:11;98515.22;;;1.40;79.85
73338;BME280;61575;49.908;35.556;2023-02-01T09:10:14;98519.66;;;1.39;79.84
73338;BME280;61575;49.908;35.556;2023-02-01T09:13:21;98520.50;;;1.40;79.87
73338;BME280;61575;49.908;35.556;2023-02-01T09:16:23;98512.72;;;1.38;79.66
73338;BME280;61575;49.908;35.556;2023-02-01T09:19:26;98514.50;;;1.38;79.73
73338;BME280;61575;49.908;35.556;2023-02-01T09:22:28;98499.06;;;1.43;79.74
73338;BME280;61575;49.908;35.556;2023-02-01T09:25:30;98512.84;;;1.37;79.60
73338;BME280;61575;49.908;35.556;2023-02-01T09:28:32;98508.78;;;1.33;79.55
73338;BME280;61575;49.908;35.556;2023-02-01T09:31:34;98514.94;;;1.33;79.32
73338;BME280;61575;49.908;35.556;2023-02-01T09:34:36;98507.28;;;1.40;79.80
73338;BME280;61575;49.908;35.556;2023-02-01T09:37:38;98505.91;;;1.45;79.62
73338;BME280;61575;49.908;35.556;2023-02-01T09:40:43;98503.53;;;1.52;79.31
73338;BME280;61575;49.908;35.556;2023-02-01T09:43:56;98501.72;;;1.43;79.01
73338;BME280;61575;49.908;35.556;2023-02-01T09:47:01;98484.47;;;1.48;79.22
73338;BME280;61575;49.908;35.556;2023-02-01T09:50:16;98488.22;;;1.56;78.98
73338;BME280;61575;49.908;35.556;2023-02-01T09:53:32;98485.16;;;1.60;78.09
73338;BME280;61575;49.908;35.556;2023-02-01T09:56:47;98488.50;;;1.62;78.45
73338;BME280;61575;49.908;35.556;2023-02-01T10:00:02;98488.09;;;1.57;78.21
73338;BME280;61575;49.908;35.556;2023-02-01T10:03:12;98480.16;;;1.57;78.43
73338;BME280;61575;49.908;35.556;2023-02-01T10:10:11;98462.47;;;1.58;78.36
73338;BME280;61575;49.908;35.556;2023-02-01T10:20:29;98461.34;;;1.70;77.96
73338;BME280;61575;49.908;35.556;2023-02-01T10:23:50;98457.31;;;1.75;78.51
73338;BME280;61575;49.908;35.556;2023-02-01T10:27:17;98453.53;;;1.78;78.28
73338;BME280;61575;49.908;35.556;2023-02-01T10:30:22;98450.06;;;1.77;78.19
73338;BME280;61575;49.908;35.556;2023-02-01T10:33:32;98444.75;;;1.77;77.69
73338;BME280;61575;49.908;35.556;2023-02-01T10:36:40;98450.34;;;1.74;77.63
73338;BME280;61575;49.908;35.556;2023-02-01T10:39:42;98443.50;;;1.72;77.87
73338;BME280;61575;49.908;35.556;2023-02-01T10:42:45;98444.63;;;1.69;77.70
73338;BME280;61575;49.908;35.556;2023-02-01T10:45:48;98446.31;;;1.51;77.23
73338;BME280;61575;49.908;35.556;2023-02-01T10:48:52;98445.19;;;1.54;77.38
73338;BME280;61575;49.908;35.556;2023-02-01T10:58:42;98449.63;;;1.34;77.05
73338;BME280;61575;49.908;35.556;2023-02-01T11:01:47;98457.97;;;1.29;77.63
73338;BME280;61575;49.908;35.556;2023-02-01T11:04:50;98459.09;;;1.27;77.50
73338;BME280;61575;49.908;35.556;2023-02-01T11:07:53;98461.31;;;1.22;77.83
73338;BME280;61575;49.908;35.556;2023-02-01T11:10:59;98458.41;;;1.25;77.85
73338;BME280;61575;49.908;35.556;2023-02-01T11:14:14;98460.47;;;1.11;77.58
73338;BME280;61575;49.908;35.556;2023-02-01T11:17:24;98463.50;;;0.97;78.07
73338;BME280;61575;49.908;35.556;2023-02-01T11:23:33;98455.13;;;0.92;78.44
73338;BME280;61575;49.908;35.556;2023-02-01T11:26:40;98458.34;;;0.96;78.79
73338;BME280;61575;49.908;35.556;2023-02-01T11:29:45;98456.81;;;1.03;78.58
73338;BME280;61575;49.908;35.556;2023-02-01T11:32:49;98459.47;;;1.03;77.93
73338;BME280;61575;49.908;35.556;2023-02-01T11:35:52;98459.16;;;0.96;78.32
73338;BME280;61575;49.908;35.556;2023-02-01T11:39:17;98464.88;;;0.92;78.32
73338;BME280;61575;49.908;35.556;2023-02-01T11:42:20;98462.50;;;0.98;78.54
73338;BME280;61575;49.908;35.556;2023-02-01T11:45:30;98459.59;;;1.01;78.23
73338;BME280;61575;49.908;35.556;2023-02-01T11:48:33;98460.69;;;0.89;78.13
73338;BME280;61575;49.908;35.556;2023-02-01T11:51:54;98457.59;;;0.84;78.33
73338;BME280;61575;49.908;35.556;2023-02-01T11:58:49;98465.38;;;0.76;79.04
73338;BME280;61575;49.908;35.556;2023-02-01T12:15:39;98464.69;;;0.83;78.99
73338;BME280;61575;49.908;35.556;2023-02-01T12:42:07;98460.09;;;0.76;78.81
73338;BME280;61575;49.908;35.556;2023-02-01T12:48:30;98465.94;;;0.79;79.10
73338;BME280;61575;49.908;35.556;2023-02-01T12:51:36;98457.88;;;0.81;79.26
73338;BME280;61575;49.908;35.556;2023-02-01T12:54:45;98461.88;;;0.75;78.91
73338;BME280;61575;49.908;35.556;2023-02-01T12:57:56;98462.44;;;0.69;78.87
73338;BME280;61575;49.908;35.556;2023-02-01T13:01:09;98461.03;;;0.65;79.28
73338;BME280;61575;49.908;35.556;2023-02-01T13:08:07;98463.59;;;0.46;79.58
73338;BME280;61575;49.908;35.556;2023-02-01T13:11:15;98465.78;;;0.41;80.07
73338;BME280;61575;49.908;35.556;2023-02-01T13:17:30;98470.34;;;0.39;80.35
73338;BME280;61575;49.908;35.556;2023-02-01T13:20:49;98470.94;;;0.42;80.45
73338;BME280;61575;49.908;35.556;2023-02-01T13:23:55;98463.00;;;0.42;80.39
73338;BME280;61575;49.908;35.556;2023-02-01T13:26:57;98463.84;;;0.43;80.66
73338;BME280;61575;49.908;35.556;2023-02-01T13:43:06;98465.56;;;0.23;81.08
73338;BME280;61575;49.908;35.556;2023-02-01T13:46:10;98464.53;;;0.14;81.43
73338;BME280;61575;49.908;35.556;2023-02-01T13:49:28;98465.25;;;0.16;81.22
73338;BME280;61575;49.908;35.556;2023-02-01T13:52:41;98453.06;;;0.04;81.49
73338;BME280;61575;49.908;35.556;2023-02-01T13:55:45;98461.97;;;0.03;81.68
73338;BME280;61575;49.908;35.556;2023-02-01T13:58:48;98460.59;;;0.09;81.49
73338;BME280;61575;49.908;35.556;2023-02-01T14:01:51;98463.00;;;0.12;81.63
73338;BME280;61575;49.908;35.556;2023-02-01T14:04:53;98460.88;;;0.06;81.67
73338;BME280;61575;49.908;35.556;2023-02-01T14:11:34;98481.97;;;0.06;82.07
73338;BME280;61575;49.908;35.556;2023-02-01T14:14:39;98467.38;;;0.02;82.00
73338;BME280;61575;49.908;35.556;2023-02-01T14:17:41;98478.25;;;-0.13;82.08
73338;BME280;61575;49.908;35.556;2023-02-01T14:20:44;98476.81;;;-0.17;82.51
73338;BME280;61575;49.908;35.556;2023-02-01T14:27:01;98474.31;;;-0.18;82.44
73338;BME280;61575;49.908;35.556;2023-02-01T14:30:11;98473.22;;;-0.16;82.34
73338;BME280;61575;49.908;35.556;2023-02-01T14:33:21;98473.47;;;-0.19;82.34
73338;BME280;61575;49.908;35.556;2023-02-01T14:36:24;98478.06;;;-0.21;82.30
73338;BME280;61575;49.908;35.556;2023-02-01T14:39:36;98490.16;;;-0.18;82.49
73338;BME280;61575;49.908;35.556;2023-02-01T14:45:48;98483.72;;;-0.25;82.67
73338;BME280;61575;49.908;35.556;2023-02-01T14:48:52;98495.81;;;-0.23;82.65
73338;BME280;61575;49.908;35.556;2023-02-01T14:51:56;98500.25;;;-0.23;82.61
73338;BME280;61575;49.908;35.556;2023-02-01T14:55:04;98501.91;;;-0.22;82.76
73338;BME280;61575;49.908;35.556;2023-02-01T15:01:50;98510.94;;;-0.25;82.91
73338;BME280;61575;49.908;35.556;2023-02-01T15:04:57;98511.50;;;-0.21;83.05
73338;BME280;61575;49.908;35.556;2023-02-01T15:08:05;98518.00;;;-0.25;82.96
73338;BME280;61575;49.908;35.556;2023-02-01T15:11:14;98529.28;;;-0.23;83.12
73338;BME280;61575;49.908;35.556;2023-02-01T15:14:17;98525.53;;;-0.21;82.96
73338;BME280;61575;49.908;35.556;2023-02-01T15:17:23;98516.66;;;-0.20;83.09
73338;BME280;61575;49.908;35.556;2023-02-01T15:20:28;98527.94;;;-0.18;83.15
73338;BME280;61575;49.908;35.556;2023-02-01T15:23:32;98526.84;;;-0.15;83.32
73338;BME280;61575;49.908;35.556;2023-02-01T15:26:34;98526.25;;;-0.19;83.28
73338;BME280;61575;49.908;35.556;2023-02-01T15:29:36;98523.34;;;-0.16;83.07
73338;BME280;61575;49.908;35.556;2023-02-01T15:32:40;98532.63;;;-0.21;83.29
73338;BME280;61575;49.908;35.556;2023-02-01T15:36:16;98523.03;;;-0.22;83.36
73338;BME280;61575;49.908;35.556;2023-02-01T15:39:25;98521.22;;;-0.22;83.58
73338;BME280;61575;49.908;35.556;2023-02-01T15:42:27;98530.09;;;-0.23;83.38
73338;BME280;61575;49.908;35.556;2023-02-01T15:45:31;98528.44;;;-0.24;83.42
73338;BME280;61575;49.908;35.556;2023-02-01T15:48:41;98537.31;;;-0.25;83.88
73338;BME280;61575;49.908;35.556;2023-02-01T15:51:46;98535.63;;;-0.26;83.85
73338;BME280;61575;49.908;35.556;2023-02-01T15:54:54;98527.59;;;-0.24;83.74
73338;BME280;61575;49.908;35.556;2023-02-01T15:57:58;98525.78;;;-0.24;83.85
73338;BME280;61575;49.908;35.556;2023-02-01T16:01:03;98530.34;;;-0.26;83.68
73338;BME280;61575;49.908;35.556;2023-02-01T16:04:28;98528.69;;;-0.27;83.97
73338;BME280;61575;49.908;35.556;2023-02-01T16:07:34;98532.28;;;-0.28;83.95
73338;BME280;61575;49.908;35.556;2023-02-01T16:10:41;98527.00;;;-0.28;84.07
73338;BME280;61575;49.908;35.556;2023-02-01T16:13:44;98522.69;;;-0.29;84.35
73338;BME280;61575;49.908;35.556;2023-02-01T16:16:46;98525.59;;;-0.32;84.33
73338;BME280;61575;49.908;35.556;2023-02-01T16:19:48;98528.34;;;-0.33;84.36
73338;BME280;61575;49.908;35.556;2023-02-01T16:22:50;98523.91;;;-0.33;84.33
73338;BME280;61575;49.908;35.556;2023-02-01T16:25:52;98529.91;;;-0.31;84.56
73338;BME280;61575;49.908;35.556;2023-02-01T16:28:54;98526.28;;;-0.30;84.53
73338;BME280;61575;49.908;35.556;2023-02-01T16:31:56;98534.22;;;-0.30;84.42
73338;BME280;61575;49.908;35.556;2023-02-01T16:34:58;98530.34;;;-0.26;84.49
73338;BME280;61575;49.908;35.556;2023-02-01T16:38:00;98524.75;;;-0.32;84.63
73338;BME280;61575;49.908;35.556;2023-02-01T16:41:03;98525.59;;;-0.32;84.64
73338;BME280;61575;49.908;35.556;2023-02-01T16:44:07;98528.72;;;-0.38;84.90
73338;BME280;61575;49.908;35.556;2023-02-01T16:47:17;98521.66;;;-0.37;84.93
73338;BME280;61575;49.908;35.556;2023-02-01T16:50:23;98518.28;;;-0.39;85.21
73338;BME280;61575;49.908;35.556;2023-02-01T16:53:28;98524.78;;;-0.43;84.95
73338;BME280;61575;49.908;35.556;2023-02-01T16:56:33;98529.22;;;-0.44;85.13
73338;BME280;61575;49.908;35.556;2023-02-01T16:59:35;98522.28;;;-0.45;85.28
73338;BME280;61575;49.908;35.556;2023-02-01T17:02:37;98526.97;;;-0.49;85.33
73338;BME280;61575;49.908;35.556;2023-02-01T17:05:44;98531.66;;;-0.52;85.44
73338;BME280;61575;49.908;35.556;2023-02-01T17:08:50;98528.16;;;-0.53;85.46
73338;BME280;61575;49.908;35.556;2023-02-01T17:11:53;98530.69;;;-0.51;85.69
73338;BME280;61575;49.908;35.556;2023-02-01T17:14:56;98533.19;;;-0.50;85.53
73338;BME280;61575;49.908;35.556;2023-02-01T17:17:59;98527.69;;;-0.47;85.72
73338;BME280;61575;49.908;35.556;2023-02-01T17:21:04;98525.75;;;-0.45;85.43
73338;BME280;61575;49.908;35.556;2023-02-01T17:24:10;98516.53;;;-0.50;85.54
73338;BME280;61575;49.908;35.556;2023-02-01T17:27:14;98526.25;;;-0.51;85.69
73338;BME280;61575;49.908;35.556;2023-02-01T17:30:17;98516.06;;;-0.55;85.61
73338;BME280;61575;49.908;35.556;2023-02-01T17:33:23;98529.50;;;-0.58;85.75
73338;BME280;61575;49.908;35.556;2023-02-01T17:36:25;98534.56;;;-0.66;85.78
73338;BME280;61575;49.908;35.556;2023-02-01T17:39:27;98533.84;;;-0.68;85.87
73338;BME280;61575;49.908;35.556;2023-02-01T17:42:48;98537.19;;;-0.66;86.09
73338;BME280;61575;49.908;35.556;2023-02-01T17:45:57;98532.50;;;-0.63;86.23
73338;BME280;61575;49.908;35.556;2023-02-01T17:49:01;98530.00;;;-0.64;86.06
73338;BME280;61575;49.908;35.556;2023-02-01T17:52:05;98535.66;;;-0.69;86.08
73338;BME280;61575;49.908;35.556;2023-02-01T17:55:25;98532.66;;;-0.75;86.14
73338;BME280;61575;49.908;35.556;2023-02-01T17:58:27;98533.16;;;-0.82;86.37
73338;BME280;61575;49.908;35.556;2023-02-01T18:01:31;98531.47;;;-0.83;86.30
73338;BME280;61575;49.908;35.556;2023-02-01T18:04:33;98525.13;;;-0.80;86.00
73338;BME280;61575;49.908;35.556;2023-02-01T18:07:35;98528.59;;;-0.80;86.44
73338;BME280;61575;49.908;35.556;2023-02-01T18:10:37;98528.34;;;-0.77;86.53
73338;BME280;61575;49.908;35.556;2023-02-01T18:13:39;98521.28;;;-0.76;86.65
73338;BME280;61575;49.908;35.556;2023-02-01T18:16:41;98523.78;;;-0.74;86.47
73338;BME280;61575;49.908;35.556;2023-02-01T18:19:43;98527.38;;;-0.75;86.45
73338;BME280;61575;49.908;35.556;2023-02-01T18:22:46;98527.03;;;-0.71;86.48
73338;BME280;61575;49.908;35.556;2023-02-01T18:25:51;98521.28;;;-0.76;86.29
73338;BME280;61575;49.908;35.556;2023-02-01T18:28:53;98515.63;;;-0.71;86.21
73338;BME280;61575;49.908;35.556;2023-02-01T18:31:55;98520.69;;;-0.80;86.23
73338;BME280;61575;49.908;35.556;2023-02-01T18:34:57;98521.91;;;-0.84;85.99
73338;BME280;61575;49.908;35.556;2023-02-01T18:38:02;98526.19;;;-0.83;85.91
73338;BME280;61575;49.908;35.556;2023-02-01T18:41:04;98528.63;;;-0.91;85.67
73338;BME280;61575;49.908;35.556;2023-02-01T18:44:12;98517.34;;;-0.93;85.73
73338;BME280;61575;49.908;35.556;2023-02-01T18:47:16;98527.06;;;-0.93;85.71
73338;BME280;61575;49.908;35.556;2023-02-01T18:50:18;98521.53;;;-0.90;85.83
73338;BME280;61575;49.908;35.556;2023-02-01T18:53:20;98523.22;;;-0.89;85.59
73338;BME280;61575;49.908;35.556;2023-02-01T18:56:24;98523.22;;;-0.89;85.58
73338;BME280;61575;49.908;35.556;2023-02-01T18:59:26;98522.50;;;-0.91;85.55
73338;BME280;61575;49.908;35.556;2023-02-01T19:02:28;98524.19;;;-0.90;85.61
73338;BME280;61575;49.908;35.556;2023-02-01T19:05:30;98531.97;;;-0.89;85.54
73338;BME280;61575;49.908;35.556;2023-02-01T19:08:33;98534.59;;;-0.89;85.63
73338;BME280;61575;49.908;35.556;2023-02-01T19:11:35;98534.47;;;-0.87;85.29
73338;BME280;61575;49.908;35.556;2023-02-01T19:14:36;98532.94;;;-0.90;85.50
73338;BME280;61575;49.908;35.556;2023-02-01T19:17:39;98527.41;;;-0.87;85.28
73338;BME280;61575;49.908;35.556;2023-02-01T19:20:41;98532.56;;;-0.85;85.37
73338;BME280;61575;49.908;35.556;2023-02-01T19:23:46;98528.84;;;-0.83;85.41
73338;BME280;61575;49.908;35.556;2023-02-01T19:26:48;98532.19;;;-0.81;85.34
73338;BME280;61575;49.908;35.556;2023-02-01T19:29:52;98527.16;;;-0.84;85.12
73338;BME280;61575;49.908;35.556;2023-02-01T19:32:53;98529.44;;;-0.90;85.40
73338;BME280;61575;49.908;35.556;2023-02-01T19:35:59;98528.03;;;-0.94;85.21
73338;BME280;61575;49.908;35.556;2023-02-01T19:39:02;98520.94;;;-0.94;85.23
73338;BME280;61575;49.908;35.556;2023-02-01T19:42:04;98522.50;;;-0.91;85.19
73338;BME280;61575;49.908;35.556;2023-02-01T19:45:07;98522.38;;;-0.90;85.07
73338;BME280;61575;49.908;35.556;2023-02-01T19:48:09;98514.72;;;-0.93;85.16
73338;BME280;61575;49.908;35.556;2023-02-01T19:51:13;98524.44;;;-0.93;84.99
73338;BME280;61575;49.908;35.556;2023-02-01T19:54:16;98523.59;;;-0.94;85.09